sensor_id;sensor_type;location;lat;lon;timestamp;pressure;altitude;pressure_sealevel;temperature;humidity
69306;BME280;56427;51.580;4.656;2022-11-02T00:02:16;101311.31;;;11.78;100.00
69306;BME280;56427;51.580;4.656;2022-11-02T00:04:41;101324.53;;;11.86;100.00
69306;BME280;56427;51.580;4.656;2022-11-02T00:07:06;101325.91;;;11.90;100.00
69306;BME280;56427;51.580;4.656;2022-11-02T00:09:32;101338.22;;;11.88;100.00
69306;BME280;56427;51.580;4.656;2022-11-02T00:11:57;101334.19;;;11.95;100.00
69306;BME280;56427;51.580;4.656;2022-11-02T00:14:22;101340.50;;;11.93;100.00
69306;BME280;56427;51.580;4.656;2022-11-02T00:16:48;101332.91;;;11.90;100.00
69306;BME280;56427;51.580;4.656;2022-11-02T00:19:13;101330.78;;;11.84;100.00
69306;BME280;56427;51.580;4.656;2022-11-02T00:21:39;101336.22;;;11.92;100.00
69306;BME280;56427;51.580;4.656;2022-11-02T00:24:06;101335.06;;;11.73;100.00
69306;BME280;56427;51.580;4.656;2022-11-02T00:26:34;101329.28;;;11.81;100.00
69306;BME280;56427;51.580;4.656;2022-11-02T00:29:00;101336.22;;;11.92;100.00
69306;BME280;56427;51.580;4.656;2022-11-02T00:31:25;101338.34;;;11.98;100.00
69306;BME280;56427;51.580;4.656;2022-11-02T00:33:51;101335.63;;;11.88;100.00
69306;BME280;56427;51.580;4.656;2022-11-02T00:36:16;101330.22;;;11.80;100.00
69306;BME280;56427;51.580;4.656;2022-11-02T00:38:41;101337.06;;;11.81;100.00
69306;BME280;56427;51.580;4.656;2022-11-02T00:41:07;101344.03;;;11.81;100.00
69306;BME280;56427;51.580;4.656;2022-11-02T00:43:32;101346.19;;;11.75;100.00
69306;BME280;56427;51.580;4.656;2022-11-02T00:45:57;101356.53;;;11.87;100.00
69306;BME280;56427;51.580;4.656;2022-11-02T00:48:23;101368.97;;;11.94;100.00
69306;BME280;56427;51.580;4.656;2022-11-02T00:50:48;101377.94;;;11.90;100.00
69306;BME280;56427;51.580;4.656;2022-11-02T00:53:13;101381.97;;;11.94;100.00
69306;BME280;56427;51.580;4.656;2022-11-02T00:55:38;101391.03;;;11.56;100.00
69306;BME280;56427;51.580;4.656;2022-11-02T00:58:04;101383.72;;;11.28;100.00
69306;BME280;56427;51.580;4.656;2022-11-02T01:00:29;101382.66;;;11.08;100.00
69306;BME280;56427;51.580;4.656;2022-11-02T01:02:58;101382.53;;;10.98;100.00
69306;BME280;56427;51.580;4.656;2022-11-02T01:05:24;101375.91;;;10.82;100.00
69306;BME280;56427;51.580;4.656;2022-11-02T01:07:49;101363.94;;;10.68;100.00
69306;BME280;56427;51.580;4.656;2022-11-02T01:10:16;101356.34;;;10.54;100.00
69306;BME280;56427;51.580;4.656;2022-11-02T01:12:41;101350.31;;;10.42;100.00
69306;BME280;56427;51.580;4.656;2022-11-02T01:15:07;101352.00;;;10.43;100.00
69306;BME280;56427;51.580;4.656;2022-11-02T01:17:34;101358.44;;;10.38;100.00
69306;BME280;56427;51.580;4.656;2022-11-02T01:19:59;101355.63;;;10.41;100.00
69306;BME280;56427;51.580;4.656;2022-11-02T01:22:24;101379.94;;;10.40;100.00
69306;BME280;56427;51.580;4.656;2022-11-02T01:24:50;101399.03;;;10.39;100.00
69306;BME280;56427;51.580;4.656;2022-11-02T01:27:15;101398.06;;;10.16;100.00
69306;BME280;56427;51.580;4.656;2022-11-02T01:29:40;101380.97;;;10.13;100.00
69306;BME280;56427;51.580;4.656;2022-11-02T01:32:05;101379.16;;;10.26;100.00
69306;BME280;56427;51.580;4.656;2022-11-02T01:34:31;101380.75;;;10.40;100.00
69306;BME280;56427;51.580;4.656;2022-11-02T01:36:56;101384.91;;;10.54;100.00
69306;BME280;56427;51.580;4.656;2022-11-02T01:39:22;101379.41;;;10.70;100.00
69306;BME280;56427;51.580;4.656;2022-11-02T01:41:50;101384.31;;;10.97;100.00
69306;BME280;56427;51.580;4.656;2022-11-02T01:44:34;101380.88;;;11.08;100.00
69306;BME280;56427;51.580;4.656;2022-11-02T01:47:10;101368.97;;;11.05;100.00
69306;BME280;56427;51.580;4.656;2022-11-02T01:49:42;101365.78;;;11.02;100.00
69306;BME280;56427;51.580;4.656;2022-11-02T01:52:23;101362.78;;;10.95;100.00
69306;BME280;56427;51.580;4.656;2022-11-02T01:55:02;101369.78;;;11.06;100.00
69306;BME280;56427;51.580;4.656;2022-11-02T01:57:30;101367.28;;;10.93;100.00
69306;BME280;56427;51.580;4.656;2022-11-02T02:02:33;101381.22;;;10.92;100.00
69306;BME280;56427;51.580;4.656;2022-11-02T02:05:06;101369.31;;;11.01;100.00
69306;BME280;56427;51.580;4.656;2022-11-02T02:07:34;101374.03;;;10.96;100.00
69306;BME280;56427;51.580;4.656;2022-11-02T02:10:00;101380.16;;;10.95;100.00
69306;BME280;56427;51.580;4.656;2022-11-02T02:12:26;101373.69;;;11.00;100.00
69306;BME280;56427;51.580;4.656;2022-11-02T02:14:52;101375.44;;;11.11;100.00
69306;BME280;56427;51.580;4.656;2022-11-02T02:17:25;101370.13;;;11.13;100.00
69306;BME280;56427;51.580;4.656;2022-11-02T02:19:57;101373.53;;;11.13;100.00
69306;BME280;56427;51.580;4.656;2022-11-02T02:23:05;101384.66;;;11.15;100.00
69306;BME280;56427;51.580;4.656;2022-11-02T02:28:37;101381.47;;;11.23;100.00
69306;BME280;56427;51.580;4.656;2022-11-02T02:31:35;101383.81;;;11.26;100.00
69306;BME280;56427;51.580;4.656;2022-11-02T02:36:51;101377.47;;;11.19;100.00
69306;BME280;56427;51.580;4.656;2022-11-02T02:39:35;101381.00;;;11.18;100.00
69306;BME280;56427;51.580;4.656;2022-11-02T02:42:24;101382.31;;;11.35;100.00
69306;BME280;56427;51.580;4.656;2022-11-02T02:47:27;101393.75;;;11.21;100.00
69306;BME280;56427;51.580;4.656;2022-11-02T02:49:57;101394.69;;;11.31;100.00
69306;BME280;56427;51.580;4.656;2022-11-02T02:52:27;101404.25;;;11.31;100.00
69306;BME280;56427;51.580;4.656;2022-11-02T02:54:57;101394.91;;;11.28;100.00
69306;BME280;56427;51.580;4.656;2022-11-02T02:57:25;101396.00;;;11.26;100.00
69306;BME280;56427;51.580;4.656;2022-11-02T02:59:51;101391.50;;;11.39;100.00
69306;BME280;56427;51.580;4.656;2022-11-02T03:02:35;101415.34;;;11.44;100.00
69306;BME280;56427;51.580;4.656;2022-11-02T03:05:19;101406.41;;;11.48;100.00
69306;BME280;56427;51.580;4.656;2022-11-02T03:07:45;101409.94;;;11.36;100.00
69306;BME280;56427;51.580;4.656;2022-11-02T03:10:23;101400.97;;;11.40;100.00
69306;BME280;56427;51.580;4.656;2022-11-02T03:13:39;101408.28;;;11.35;100.00
69306;BME280;56427;51.580;4.656;2022-11-02T03:16:23;101395.41;;;11.33;100.00
69306;BME280;56427;51.580;4.656;2022-11-02T03:19:19;101409.00;;;11.37;100.00
69306;BME280;56427;51.580;4.656;2022-11-02T03:21:54;101412.66;;;11.34;100.00
69306;BME280;56427;51.580;4.656;2022-11-02T03:30:14;101421.41;;;11.22;100.00
69306;BME280;56427;51.580;4.656;2022-11-02T03:32:55;101428.72;;;11.17;100.00
69306;BME280;56427;51.580;4.656;2022-11-02T03:35:31;101420.91;;;11.28;100.00
69306;BME280;56427;51.580;4.656;2022-11-02T03:38:08;101426.59;;;11.22;100.00
69306;BME280;56427;51.580;4.656;2022-11-02T03:40:43;101424.59;;;11.26;100.00
69306;BME280;56427;51.580;4.656;2022-11-02T03:43:10;101430.94;;;11.33;100.00
69306;BME280;56427;51.580;4.656;2022-11-02T03:45:43;101436.38;;;11.30;100.00
69306;BME280;56427;51.580;4.656;2022-11-02T03:48:11;101437.94;;;11.32;100.00
69306;BME280;56427;51.580;4.656;2022-11-02T03:50:40;101436.38;;;11.30;100.00
69306;BME280;56427;51.580;4.656;2022-11-02T03:53:16;101444.91;;;11.20;100.00
69306;BME280;56427;51.580;4.656;2022-11-02T03:55:48;101440.97;;;11.15;100.00
69306;BME280;56427;51.580;4.656;2022-11-02T03:58:15;101466.38;;;11.22;100.00
69306;BME280;56427;51.580;4.656;2022-11-02T04:00:49;101458.47;;;11.24;100.00
69306;BME280;56427;51.580;4.656;2022-11-02T04:03:16;101462.38;;;11.18;100.00
69306;BME280;56427;51.580;4.656;2022-11-02T04:05:42;101468.97;;;11.22;100.00
69306;BME280;56427;51.580;4.656;2022-11-02T04:08:09;101470.53;;;11.25;100.00
69306;BME280;56427;51.580;4.656;2022-11-02T04:10:49;101479.38;;;11.34;100.00
69306;BME280;56427;51.580;4.656;2022-11-02T04:13:34;101492.16;;;11.37;100.00
69306;BME280;56427;51.580;4.656;2022-11-02T04:16:18;101498.41;;;11.34;100.00
69306;BME280;56427;51.580;4.656;2022-11-02T04:18:44;101504.91;;;11.29;100.00
69306;BME280;56427;51.580;4.656;2022-11-02T04:21:28;101501.44;;;11.28;100.00
69306;BME280;56427;51.580;4.656;2022-11-02T04:23:54;101520.72;;;11.26;100.00
69306;BME280;56427;51.580;4.656;2022-11-02T04:26:38;101507.72;;;11.26;100.00
69306;BME280;56427;51.580;4.656;2022-11-02T04:29:03;101513.16;;;11.22;100.00
69306;BME280;56427;51.580;4.656;2022-11-02T04:31:29;101521.41;;;11.16;100.00
69306;BME280;56427;51.580;4.656;2022-11-02T04:33:54;101532.25;;;11.10;100.00
69306;BME280;56427;51.580;4.656;2022-11-02T04:36:22;101542.88;;;11.07;100.00
69306;BME280;56427;51.580;4.656;2022-11-02T04:38:48;101551.13;;;11.01;100.00
69306;BME280;56427;51.580;4.656;2022-11-02T04:41:18;101550.41;;;10.99;100.00
69306;BME280;56427;51.580;4.656;2022-11-02T04:44:03;101558.19;;;10.99;100.00
69306;BME280;56427;51.580;4.656;2022-11-02T04:46:30;101556.31;;;11.01;100.00
69306;BME280;56427;51.580;4.656;2022-11-02T04:48:55;101557.34;;;10.98;100.00
69306;BME280;56427;51.580;4.656;2022-11-02T04:51:22;101567.69;;;10.87;100.00
69306;BME280;56427;51.580;4.656;2022-11-02T04:53:48;101568.53;;;10.88;100.00
69306;BME280;56427;51.580;4.656;2022-11-02T04:56:14;101575.22;;;10.79;100.00
69306;BME280;56427;51.580;4.656;2022-11-02T04:58:40;101586.22;;;10.82;100.00
69306;BME280;56427;51.580;4.656;2022-11-02T05:01:06;101599.53;;;10.78;100.00
69306;BME280;56427;51.580;4.656;2022-11-02T05:03:32;101608.06;;;10.67;100.00
69306;BME280;56427;51.580;4.656;2022-11-02T05:05:57;101605.47;;;10.67;100.00
69306;BME280;56427;51.580;4.656;2022-11-02T05:08:22;101613.06;;;10.70;100.00
69306;BME280;56427;51.580;4.656;2022-11-02T05:10:48;101616.81;;;10.66;100.00
69306;BME280;56427;51.580;4.656;2022-11-02T05:13:13;101620.78;;;10.59;100.00
69306;BME280;56427;51.580;4.656;2022-11-02T05:15:38;101624.13;;;10.48;100.00
69306;BME280;56427;51.580;4.656;2022-11-02T05:18:04;101619.78;;;10.48;100.00
69306;BME280;56427;51.580;4.656;2022-11-02T05:20:29;101624.44;;;10.56;100.00
69306;BME280;56427;51.580;4.656;2022-11-02T05:22:54;101630.75;;;10.52;100.00
69306;BME280;56427;51.580;4.656;2022-11-02T05:25:20;101631.47;;;10.54;100.00
69306;BME280;56427;51.580;4.656;2022-11-02T05:27:45;101644.06;;;10.47;100.00
69306;BME280;56427;51.580;4.656;2022-11-02T05:30:11;101646.13;;;10.42;100.00
69306;BME280;56427;51.580;4.656;2022-11-02T05:32:36;101654.97;;;10.40;100.00
69306;BME280;56427;51.580;4.656;2022-11-02T05:35:02;101653.72;;;10.32;100.00
69306;BME280;56427;51.580;4.656;2022-11-02T05:37:27;101650.38;;;10.30;100.00
69306;BME280;56427;51.580;4.656;2022-11-02T05:39:52;101654.97;;;10.40;100.00
69306;BME280;56427;51.580;4.656;2022-11-02T05:42:18;101654.38;;;10.36;100.00
69306;BME280;56427;51.580;4.656;2022-11-02T05:44:43;101654.59;;;10.33;100.00
69306;BME280;56427;51.580;4.656;2022-11-02T05:47:08;101666.88;;;10.29;100.00
69306;BME280;56427;51.580;4.656;2022-11-02T05:49:33;101666.38;;;10.24;100.00
69306;BME280;56427;51.580;4.656;2022-11-02T05:51:59;101672.31;;;10.13;100.00
69306;BME280;56427;51.580;4.656;2022-11-02T05:54:25;101675.09;;;10.23;100.00
69306;BME280;56427;51.580;4.656;2022-11-02T05:56:50;101679.78;;;10.18;100.00
69306;BME280;56427;51.580;4.656;2022-11-02T05:59:15;101676.94;;;10.21;100.00
69306;BME280;56427;51.580;4.656;2022-11-02T06:01:41;101683.09;;;10.20;100.00
69306;BME280;56427;51.580;4.656;2022-11-02T06:04:06;101688.91;;;10.11;100.00
69306;BME280;56427;51.580;4.656;2022-11-02T06:06:31;101690.78;;;10.09;100.00
69306;BME280;56427;51.580;4.656;2022-11-02T06:08:57;101698.56;;;10.09;100.00
69306;BME280;56427;51.580;4.656;2022-11-02T06:11:23;101707.34;;;10.06;100.00
69306;BME280;56427;51.580;4.656;2022-11-02T06:13:49;101719.91;;;10.00;100.00
69306;BME280;56427;51.580;4.656;2022-11-02T06:16:15;101720.94;;;9.97;100.00
69306;BME280;56427;51.580;4.656;2022-11-02T06:18:41;101730.91;;;9.90;100.00
69306;BME280;56427;51.580;4.656;2022-11-02T06:21:07;101731.19;;;9.86;100.00
69306;BME280;56427;51.580;4.656;2022-11-02T06:23:33;101730.81;;;9.92;100.00
69306;BME280;56427;51.580;4.656;2022-11-02T06:25:59;101739.41;;;9.92;100.00
69306;BME280;56427;51.580;4.656;2022-11-02T06:28:26;101744.59;;;9.92;100.00
69306;BME280;56427;51.580;4.656;2022-11-02T06:30:52;101757.13;;;9.86;100.00
69306;BME280;56427;51.580;4.656;2022-11-02T06:33:18;101766.69;;;9.85;100.00
69306;BME280;56427;51.580;4.656;2022-11-02T06:35:47;101776.28;;;9.83;100.00
69306;BME280;56427;51.580;4.656;2022-11-02T06:38:14;101780.66;;;9.83;100.00
69306;BME280;56427;51.580;4.656;2022-11-02T06:40:39;101783.78;;;9.88;100.00
69306;BME280;56427;51.580;4.656;2022-11-02T06:43:05;101796.53;;;9.91;100.00
69306;BME280;56427;51.580;4.656;2022-11-02T06:45:30;101802.97;;;9.85;100.00
69306;BME280;56427;51.580;4.656;2022-11-02T06:47:55;101800.16;;;9.75;100.00
69306;BME280;56427;51.580;4.656;2022-11-02T06:50:20;101805.84;;;9.81;100.00
69306;BME280;56427;51.580;4.656;2022-11-02T06:52:48;101813.94;;;9.76;100.00
69306;BME280;56427;51.580;4.656;2022-11-02T06:55:14;101820.56;;;9.80;100.00
69306;BME280;56427;51.580;4.656;2022-11-02T06:57:40;101829.19;;;9.81;100.00
69306;BME280;56427;51.580;4.656;2022-11-02T07:00:08;101832.16;;;9.74;100.00
69306;BME280;56427;51.580;4.656;2022-11-02T07:02:36;101834.56;;;9.77;100.00
69306;BME280;56427;51.580;4.656;2022-11-02T07:05:02;101842.88;;;9.83;100.00
69306;BME280;56427;51.580;4.656;2022-11-02T07:07:27;101849.94;;;9.81;100.00
69306;BME280;56427;51.580;4.656;2022-11-02T07:09:52;101851.38;;;9.85;100.00
69306;BME280;56427;51.580;4.656;2022-11-02T07:12:18;101855.13;;;9.81;100.00
69306;BME280;56427;51.580;4.656;2022-11-02T07:14:43;101861.94;;;9.82;100.00
69306;BME280;56427;51.580;4.656;2022-11-02T07:17:08;101870.38;;;9.85;100.00
69306;BME280;56427;51.580;4.656;2022-11-02T07:19:34;101862.16;;;9.79;100.00
69306;BME280;56427;51.580;4.656;2022-11-02T07:22:00;101867.13;;;9.82;100.00
69306;BME280;56427;51.580;4.656;2022-11-02T07:24:25;101880.25;;;9.93;100.00
69306;BME280;56427;51.580;4.656;2022-11-02T07:26:50;101874.78;;;9.98;100.00
69306;BME280;56427;51.580;4.656;2022-11-02T07:29:16;101883.81;;;10.05;100.00
69306;BME280;56427;51.580;4.656;2022-11-02T07:31:42;101883.53;;;10.09;100.00
69306;BME280;56427;51.580;4.656;2022-11-02T07:34:07;101884.28;;;10.24;100.00
69306;BME280;56427;51.580;4.656;2022-11-02T07:36:33;101887.25;;;10.32;100.00
69306;BME280;56427;51.580;4.656;2022-11-02T07:38:58;101892.50;;;10.58;100.00
69306;BME280;56427;51.580;4.656;2022-11-02T07:41:23;101894.91;;;10.74;100.00
69306;BME280;56427;51.580;4.656;2022-11-02T07:43:49;101902.59;;;11.01;100.00
69306;BME280;56427;51.580;4.656;2022-11-02T07:46:14;101900.50;;;11.07;100.00
69306;BME280;56427;51.580;4.656;2022-11-02T07:48:39;101897.91;;;11.07;100.00
69306;BME280;56427;51.580;4.656;2022-11-02T07:51:05;101898.13;;;11.29;100.00
69306;BME280;56427;51.580;4.656;2022-11-02T07:53:32;101907.38;;;11.33;100.00
69306;BME280;56427;51.580;4.656;2022-11-02T07:55:59;101902.38;;;11.30;100.00
69306;BME280;56427;51.580;4.656;2022-11-02T07:58:24;101909.88;;;11.72;100.00
69306;BME280;56427;51.580;4.656;2022-11-02T08:00:51;101911.84;;;11.81;100.00
69306;BME280;56427;51.580;4.656;2022-11-02T08:03:16;101908.94;;;11.73;100.00
69306;BME280;56427;51.580;4.656;2022-11-02T08:05:41;101922.94;;;11.83;100.00
69306;BME280;56427;51.580;4.656;2022-11-02T08:08:12;101917.59;;;11.60;100.00
69306;BME280;56427;51.580;4.656;2022-11-02T08:10:38;101924.09;;;11.79;100.00
69306;BME280;56427;51.580;4.656;2022-11-02T08:13:03;101927.47;;;11.68;100.00
69306;BME280;56427;51.580;4.656;2022-11-02T08:15:28;101922.88;;;11.72;100.00
69306;BME280;56427;51.580;4.656;2022-11-02T08:18:27;101928.25;;;11.94;100.00
69306;BME280;56427;51.580;4.656;2022-11-02T08:20:54;101926.28;;;11.72;100.00
69306;BME280;56427;51.580;4.656;2022-11-02T08:23:20;101929.00;;;11.71;100.00
69306;BME280;56427;51.580;4.656;2022-11-02T08:25:47;101927.88;;;11.75;100.00
69306;BME280;56427;51.580;4.656;2022-11-02T08:28:16;101921.88;;;11.86;100.00
69306;BME280;56427;51.580;4.656;2022-11-02T08:30:41;101917.84;;;11.94;100.00
69306;BME280;56427;51.580;4.656;2022-11-02T08:33:09;101921.38;;;11.93;100.00
69306;BME280;56427;51.580;4.656;2022-11-02T08:35:38;101930.56;;;12.10;100.00
69306;BME280;56427;51.580;4.656;2022-11-02T08:38:04;101931.81;;;12.18;100.00
69306;BME280;56427;51.580;4.656;2022-11-02T08:40:29;101943.75;;;11.96;100.00
69306;BME280;56427;51.580;4.656;2022-11-02T08:42:59;101953.56;;;11.79;100.00
69306;BME280;56427;51.580;4.656;2022-11-02T08:45:25;101949.00;;;11.57;100.00
69306;BME280;56427;51.580;4.656;2022-11-02T08:47:51;101953.56;;;11.67;100.00
69306;BME280;56427;51.580;4.656;2022-11-02T08:50:16;101957.78;;;11.81;100.00
69306;BME280;56427;51.580;4.656;2022-11-02T08:52:41;101965.09;;;11.75;100.00
69306;BME280;56427;51.580;4.656;2022-11-02T08:55:07;101956.16;;;11.79;100.00
69306;BME280;56427;51.580;4.656;2022-11-02T08:57:32;101967.34;;;12.06;100.00
69306;BME280;56427;51.580;4.656;2022-11-02T08:59:57;101968.50;;;12.02;100.00
69306;BME280;56427;51.580;4.656;2022-11-02T09:02:23;101968.09;;;11.95;100.00
69306;BME280;56427;51.580;4.656;2022-11-02T09:04:48;101977.06;;;12.15;100.00
69306;BME280;56427;51.580;4.656;2022-11-02T09:07:13;101966.25;;;12.21;100.00
69306;BME280;56427;51.580;4.656;2022-11-02T09:09:38;101975.19;;;12.65;100.00
69306;BME280;56427;51.580;4.656;2022-11-02T09:12:04;101979.31;;;12.68;100.00
69306;BME280;56427;51.580;4.656;2022-11-02T09:14:30;101977.69;;;12.67;100.00
69306;BME280;56427;51.580;4.656;2022-11-02T09:16:55;101977.38;;;12.94;100.00
69306;BME280;56427;51.580;4.656;2022-11-02T09:19:20;101977.31;;;13.30;100.00
69306;BME280;56427;51.580;4.656;2022-11-02T09:21:46;101969.59;;;13.17;100.00
69306;BME280;56427;51.580;4.656;2022-11-02T09:24:12;101975.28;;;13.11;100.00
69306;BME280;56427;51.580;4.656;2022-11-02T09:26:37;101975.88;;;13.25;100.00
69306;BME280;56427;51.580;4.656;2022-11-02T09:29:02;101978.97;;;13.08;100.00
69306;BME280;56427;51.580;4.656;2022-11-02T09:31:28;101975.69;;;13.74;100.00
69306;BME280;56427;51.580;4.656;2022-11-02T09:33:54;101985.13;;;14.09;100.00
69306;BME280;56427;51.580;4.656;2022-11-02T09:36:19;101981.00;;;13.95;100.00
69306;BME280;56427;51.580;4.656;2022-11-02T09:38:44;101990.22;;;13.99;100.00
69306;BME280;56427;51.580;4.656;2022-11-02T09:41:13;101996.16;;;14.01;100.00
69306;BME280;56427;51.580;4.656;2022-11-02T09:43:52;101988.94;;;14.05;100.00
69306;BME280;56427;51.580;4.656;2022-11-02T09:46:47;101998.31;;;13.96;100.00
69306;BME280;56427;51.580;4.656;2022-11-02T09:49:15;101994.19;;;13.71;100.00
69306;BME280;56427;51.580;4.656;2022-11-02T09:51:57;102001.66;;;13.64;100.00
69306;BME280;56427;51.580;4.656;2022-11-02T09:54:28;102004.63;;;13.71;100.00
69306;BME280;56427;51.580;4.656;2022-11-02T09:56:57;102006.78;;;13.66;100.00
69306;BME280;56427;51.580;4.656;2022-11-02T09:59:26;102012.22;;;13.51;100.00
69306;BME280;56427;51.580;4.656;2022-11-02T10:02:04;102011.63;;;13.48;100.00
69306;BME280;56427;51.580;4.656;2022-11-02T10:13:10;102002.13;;;13.80;100.00
69306;BME280;56427;51.580;4.656;2022-11-02T10:15:45;102003.34;;;13.54;100.00
69306;BME280;56427;51.580;4.656;2022-11-02T10:18:18;102010.19;;;13.77;100.00
69306;BME280;56427;51.580;4.656;2022-11-02T10:20:45;102010.88;;;14.02;100.00
69306;BME280;56427;51.580;4.656;2022-11-02T10:23:19;102015.56;;;14.31;100.00
69306;BME280;56427;51.580;4.656;2022-11-02T10:25:47;102010.06;;;14.02;100.00
69306;BME280;56427;51.580;4.656;2022-11-02T10:28:17;102010.50;;;14.18;100.00
69306;BME280;56427;51.580;4.656;2022-11-02T10:30:43;102023.75;;;14.59;100.00
69306;BME280;56427;51.580;4.656;2022-11-02T10:33:14;102013.94;;;14.18;100.00
69306;BME280;56427;51.580;4.656;2022-11-02T10:35:50;102023.44;;;14.08;100.00
69306;BME280;56427;51.580;4.656;2022-11-02T10:38:34;102022.78;;;14.27;100.00
69306;BME280;56427;51.580;4.656;2022-11-02T10:44:08;102028.41;;;14.55;98.76
69306;BME280;56427;51.580;4.656;2022-11-02T10:46:58;102032.56;;;14.69;96.73
69306;BME280;56427;51.580;4.656;2022-11-02T10:52:39;102029.69;;;14.72;97.94
69306;BME280;56427;51.580;4.656;2022-11-02T10:55:10;102022.09;;;14.69;98.53
69306;BME280;56427;51.580;4.656;2022-11-02T10:57:38;102034.19;;;14.38;97.63
69306;BME280;56427;51.580;4.656;2022-11-02T11:00:23;102033.34;;;14.37;99.81
69306;BME280;56427;51.580;4.656;2022-11-02T11:03:06;102028.72;;;14.73;97.83
69306;BME280;56427;51.580;4.656;2022-11-02T11:05:32;102031.88;;;15.30;98.75
69306;BME280;56427;51.580;4.656;2022-11-02T11:07:59;102023.31;;;15.28;97.22
69306;BME280;56427;51.580;4.656;2022-11-02T11:10:25;102014.41;;;14.56;100.00
69306;BME280;56427;51.580;4.656;2022-11-02T11:12:53;102011.78;;;14.24;100.00
69306;BME280;56427;51.580;4.656;2022-11-02T11:15:26;102007.66;;;14.42;100.00
69306;BME280;56427;51.580;4.656;2022-11-02T11:17:52;102004.78;;;14.57;100.00
69306;BME280;56427;51.580;4.656;2022-11-02T11:20:34;102007.97;;;14.93;100.00
69306;BME280;56427;51.580;4.656;2022-11-02T11:25:39;102023.03;;;15.00;100.00
69306;BME280;56427;51.580;4.656;2022-11-02T11:28:23;102012.94;;;14.96;100.00
69306;BME280;56427;51.580;4.656;2022-11-02T11:31:03;102010.19;;;15.18;99.99
69306;BME280;56427;51.580;4.656;2022-11-02T11:33:30;102019.00;;;14.96;100.00
69306;BME280;56427;51.580;4.656;2022-11-02T11:35:57;102028.53;;;14.21;100.00
69306;BME280;56427;51.580;4.656;2022-11-02T11:38:23;102021.78;;;14.51;100.00
69306;BME280;56427;51.580;4.656;2022-11-02T11:40:56;102016.25;;;14.98;100.00
69306;BME280;56427;51.580;4.656;2022-11-02T11:43:28;102014.34;;;14.79;100.00
69306;BME280;56427;51.580;4.656;2022-11-02T11:45:55;102003.94;;;15.09;100.00
69306;BME280;56427;51.580;4.656;2022-11-02T11:48:26;102001.50;;;15.18;100.00
69306;BME280;56427;51.580;4.656;2022-11-02T11:50:56;102009.19;;;14.88;100.00
69306;BME280;56427;51.580;4.656;2022-11-02T11:53:28;101988.03;;;14.27;100.00
69306;BME280;56427;51.580;4.656;2022-11-02T11:55:58;101991.63;;;14.47;100.00
69306;BME280;56427;51.580;4.656;2022-11-02T11:58:31;101984.59;;;14.26;100.00
69306;BME280;56427;51.580;4.656;2022-11-02T12:01:05;101990.91;;;14.56;100.00
69306;BME280;56427;51.580;4.656;2022-11-02T12:03:31;101998.66;;;14.79;100.00
69306;BME280;56427;51.580;4.656;2022-11-02T12:06:22;101985.22;;;14.62;100.00
69306;BME280;56427;51.580;4.656;2022-11-02T12:08:57;101970.44;;;14.94;100.00
69306;BME280;56427;51.580;4.656;2022-11-02T12:20:55;101972.97;;;14.84;100.00
69306;BME280;56427;51.580;4.656;2022-11-02T12:23:46;101979.03;;;15.05;100.00
69306;BME280;56427;51.580;4.656;2022-11-02T12:26:29;101972.00;;;14.85;100.00
69306;BME280;56427;51.580;4.656;2022-11-02T12:29:30;101975.16;;;15.31;100.00
69306;BME280;56427;51.580;4.656;2022-11-02T12:43:16;101937.38;;;15.54;100.00
69306;BME280;56427;51.580;4.656;2022-11-02T12:46:03;101945.03;;;15.05;100.00
69306;BME280;56427;51.580;4.656;2022-11-02T12:51:26;101946.38;;;15.00;100.00
69306;BME280;56427;51.580;4.656;2022-11-02T12:53:58;101945.16;;;15.04;100.00
69306;BME280;56427;51.580;4.656;2022-11-02T12:56:33;101936.44;;;14.94;100.00
69306;BME280;56427;51.580;4.656;2022-11-02T12:59:04;101960.84;;;15.04;100.00
69306;BME280;56427;51.580;4.656;2022-11-02T13:01:34;101933.47;;;14.77;100.00
69306;BME280;56427;51.580;4.656;2022-11-02T13:04:21;101939.00;;;14.84;100.00
69306;BME280;56427;51.580;4.656;2022-11-02T13:06:58;101933.06;;;14.82;100.00
69306;BME280;56427;51.580;4.656;2022-11-02T13:09:36;101941.09;;;15.21;100.00
69306;BME280;56427;51.580;4.656;2022-11-02T13:12:06;101929.44;;;15.25;100.00
69306;BME280;56427;51.580;4.656;2022-11-02T13:14:42;101925.97;;;15.24;100.00
69306;BME280;56427;51.580;4.656;2022-11-02T13:17:26;101923.69;;;15.00;100.00
69306;BME280;56427;51.580;4.656;2022-11-02T13:19:56;101922.22;;;14.86;100.00
69306;BME280;56427;51.580;4.656;2022-11-02T13:22:28;101920.91;;;14.71;100.00
69306;BME280;56427;51.580;4.656;2022-11-02T13:24:56;101929.81;;;14.68;100.00
69306;BME280;56427;51.580;4.656;2022-11-02T13:27:35;101934.34;;;14.66;100.00
69306;BME280;56427;51.580;4.656;2022-11-02T13:30:13;101926.88;;;14.62;100.00
69306;BME280;56427;51.580;4.656;2022-11-02T13:33:00;101928.38;;;14.43;100.00
69306;BME280;56427;51.580;4.656;2022-11-02T13:35:37;101915.28;;;14.22;100.00
69306;BME280;56427;51.580;4.656;2022-11-02T13:40:40;101909.00;;;14.25;100.00
69306;BME280;56427;51.580;4.656;2022-11-02T13:50:57;101900.41;;;14.13;100.00
69306;BME280;56427;51.580;4.656;2022-11-02T13:53:33;101904.81;;;14.33;100.00
69306;BME280;56427;51.580;4.656;2022-11-02T13:56:07;101907.47;;;14.43;100.00
69306;BME280;56427;51.580;4.656;2022-11-02T13:58:35;101906.91;;;14.82;100.00
69306;BME280;56427;51.580;4.656;2022-11-02T14:01:04;101907.09;;;14.90;100.00
69306;BME280;56427;51.580;4.656;2022-11-02T14:04:04;101886.66;;;14.95;100.00